createdAt,value
2023-04-10T00:01:13.513Z,7.25
2023-04-10T00:03:41.317Z,9.65
2023-04-10T00:06:08.117Z,9.38
2023-04-10T00:08:34.728Z,8.18
2023-04-10T00:11:01.283Z,8.70
2023-04-10T00:13:28.032Z,7.93
2023-04-10T00:15:55.592Z,10.52
2023-04-10T00:18:22.146Z,8.05
2023-04-10T00:20:48.808Z,8.30
2023-04-10T00:23:15.454Z,9.20
2023-04-10T00:25:42.054Z,7.13
2023-04-10T00:28:08.593Z,7.88
2023-04-10T00:30:37.756Z,9.27
2023-04-10T00:33:04.407Z,8.00
2023-04-10T00:35:33.950Z,7.40
2023-04-10T00:38:00.677Z,7.97
2023-04-10T00:40:29.570Z,8.15
2023-04-10T00:42:56.255Z,8.57
2023-04-10T00:45:22.978Z,7.60
2023-04-10T00:47:49.832Z,8.85
2023-04-10T00:50:16.861Z,8.60
2023-04-10T00:52:43.540Z,8.45
2023-04-10T00:55:12.646Z,10.63
2023-04-10T00:57:40.482Z,8.50
2023-04-10T01:00:08.024Z,8.65
2023-04-10T01:02:34.710Z,8.80
2023-04-10T01:05:02.029Z,8.57
2023-04-10T01:07:56.514Z,9.52
2023-04-10T01:10:48.753Z,8.23
2023-04-10T01:13:23.018Z,7.53
2023-04-10T01:16:08.878Z,9.77
2023-04-10T01:18:44.431Z,9.40
2023-04-10T01:21:12.330Z,9.25
2023-04-10T01:24:06.284Z,8.40
2023-04-10T01:27:04.321Z,8.70
2023-04-10T01:29:33.880Z,9.48
2023-04-10T01:32:14.734Z,7.80
2023-04-10T01:34:47.608Z,9.85
2023-04-10T01:37:18.357Z,10.13
2023-04-10T01:39:59.242Z,10.02
2023-04-10T01:42:28.532Z,8.65
2023-04-10T01:44:57.403Z,9.43
2023-04-10T01:47:25.357Z,11.13
2023-04-10T01:49:56.482Z,10.52
2023-04-10T01:52:26.033Z,10.00
2023-04-10T01:55:04.541Z,7.85
2023-04-10T01:57:37.905Z,9.43
2023-04-10T02:00:05.068Z,8.45
2023-04-10T02:02:44.200Z,10.55
2023-04-10T02:05:11.419Z,10.32
2023-04-10T02:07:51.608Z,10.18
2023-04-10T02:10:29.483Z,9.55
2023-04-10T02:13:03.483Z,8.75
2023-04-10T02:15:32.394Z,10.30
2023-04-10T02:18:00.653Z,8.73
2023-04-10T02:20:27.545Z,9.88
2023-04-10T02:22:57.058Z,8.98
2023-04-10T02:25:25.194Z,10.00
2023-04-10T02:27:54.007Z,12.93
2023-04-10T02:30:22.842Z,9.73
2023-04-10T02:32:57.848Z,10.00
2023-04-10T02:35:24.703Z,8.52
2023-04-10T02:37:51.459Z,9.85
2023-04-10T02:40:18.458Z,8.52
2023-04-10T02:43:05.033Z,8.30
2023-04-10T02:45:34.191Z,9.70
2023-04-10T02:48:04.283Z,8.70
2023-04-10T02:50:32.183Z,9.90
2023-04-10T02:53:02.989Z,8.82
2023-04-10T02:55:30.799Z,9.70
2023-04-10T02:57:59.646Z,8.98
2023-04-10T03:00:26.586Z,11.85
2023-04-10T03:03:13.966Z,9.68
2023-04-10T03:05:49.473Z,9.77
2023-04-10T03:08:21.101Z,12.75
2023-04-10T03:10:51.789Z,10.60
2023-04-10T03:13:18.420Z,10.80
2023-04-10T03:15:45.109Z,12.35
2023-04-10T03:18:13.846Z,9.85
2023-04-10T03:20:45.583Z,10.77
2023-04-10T03:23:14.921Z,9.57
2023-04-10T03:25:43.938Z,10.98
2023-04-10T03:28:11.759Z,9.90
2023-04-10T03:30:38.619Z,10.88
2023-04-10T03:33:05.503Z,10.48
2023-04-10T03:35:36.113Z,12.95
2023-04-10T03:38:02.845Z,10.90
2023-04-10T03:40:29.469Z,9.15
2023-04-10T03:42:56.079Z,10.18
2023-04-10T03:45:23.379Z,9.73
2023-04-10T03:47:52.338Z,10.68
2023-04-10T03:50:21.750Z,10.27
2023-04-10T03:52:55.336Z,10.38
2023-04-10T03:55:23.608Z,10.18
2023-04-10T03:57:53.478Z,8.90
2023-04-10T04:00:25.102Z,10.07
2023-04-10T04:03:00.890Z,8.98
2023-04-10T04:05:47.686Z,10.35
2023-04-10T04:08:28.050Z,10.38
2023-04-10T04:11:08.904Z,8.75
2023-04-10T04:13:46.326Z,8.98
2023-04-10T04:16:31.468Z,9.48
2023-04-10T04:19:16.673Z,10.20
2023-04-10T04:22:05.878Z,10.07
2023-04-10T04:24:55.569Z,10.05
2023-04-10T04:27:53.452Z,9.85
2023-04-10T04:30:45.735Z,9.15
2023-04-10T04:33:34.944Z,11.63
2023-04-10T04:36:24.111Z,10.35
2023-04-10T04:39:28.983Z,8.15
2023-04-10T04:42:07.560Z,10.27
2023-04-10T04:44:49.245Z,8.88
2023-04-10T04:47:25.513Z,9.00
2023-04-10T04:49:52.209Z,9.20
2023-04-10T04:52:27.363Z,8.93
2023-04-10T04:55:12.290Z,8.48
2023-04-10T04:58:04.819Z,9.02
2023-04-10T05:00:55.400Z,9.35
2023-04-10T05:03:52.589Z,9.82
2023-04-10T05:06:35.261Z,9.00
2023-04-10T05:09:30.779Z,9.88
2023-04-10T05:12:08.314Z,11.30
2023-04-10T05:14:54.018Z,11.27
2023-04-10T05:17:38.871Z,11.93
2023-04-10T05:20:17.612Z,11.30
2023-04-10T05:23:03.129Z,12.10
2023-04-10T05:25:55.411Z,11.93
2023-04-10T05:28:40.769Z,10.88
2023-04-10T05:31:38.611Z,9.40
2023-04-10T05:34:13.595Z,11.60
2023-04-10T05:37:18.884Z,9.52
2023-04-10T05:39:59.088Z,11.57
2023-04-10T05:42:45.157Z,9.57
2023-04-10T05:45:25.437Z,11.52
2023-04-10T05:48:06.473Z,10.23
2023-04-10T05:50:52.649Z,9.30
2023-04-10T05:53:45.510Z,10.73
2023-04-10T05:56:31.194Z,11.57
2023-04-10T05:59:07.944Z,10.65
2023-04-10T06:01:42.142Z,9.48
2023-04-10T06:04:09.064Z,12.05
2023-04-10T06:06:38.949Z,9.75
2023-04-10T06:09:05.659Z,8.93
2023-04-10T06:11:32.290Z,9.05
2023-04-10T06:14:01.462Z,8.90
2023-04-10T06:16:35.332Z,10.02
2023-04-10T06:19:02.048Z,11.20
2023-04-10T06:21:29.751Z,10.60
2023-04-10T06:23:56.428Z,9.88
2023-04-10T06:26:24.708Z,8.88
2023-04-10T06:28:53.274Z,9.80
2023-04-10T06:31:23.392Z,8.15
2023-04-10T06:33:52.649Z,9.43
2023-04-10T06:36:19.828Z,9.57
2023-04-10T06:38:52.681Z,8.35
2023-04-10T06:41:19.441Z,10.07
2023-04-10T06:43:46.212Z,10.90
2023-04-10T06:46:15.993Z,9.05
2023-04-10T06:48:42.689Z,11.70
2023-04-10T06:51:09.401Z,11.27
2023-04-10T06:53:35.959Z,9.18
2023-04-10T06:56:03.656Z,8.30
2023-04-10T06:58:32.578Z,11.02
2023-04-10T07:01:04.153Z,11.60
2023-04-10T07:03:32.799Z,10.23
2023-04-10T07:06:01.832Z,7.82
2023-04-10T07:08:28.440Z,8.00
2023-04-10T07:10:57.879Z,10.00
2023-04-10T07:13:25.185Z,11.15
2023-04-10T07:15:51.810Z,10.38
2023-04-10T07:18:18.446Z,9.85
2023-04-10T07:20:45.067Z,8.07
2023-04-10T07:23:11.613Z,7.90
2023-04-10T07:25:41.459Z,8.10
2023-04-10T07:28:11.085Z,10.38
2023-04-10T07:30:38.857Z,7.57
2023-04-10T07:33:07.355Z,8.18
2023-04-10T07:35:36.225Z,8.25
2023-04-10T07:38:05.128Z,8.27
2023-04-10T07:40:34.466Z,7.50
2023-04-10T07:43:01.006Z,9.25
2023-04-10T07:45:30.431Z,8.40
2023-04-10T07:48:01.172Z,8.20
2023-04-10T07:50:38.088Z,7.63
2023-04-10T07:53:11.938Z,7.43
2023-04-10T07:55:44.253Z,7.65
2023-04-10T07:58:13.254Z,7.03
2023-04-10T08:00:39.928Z,6.03
2023-04-10T08:03:07.348Z,8.10
2023-04-10T08:05:34.327Z,7.25
2023-04-10T08:08:00.894Z,8.30
2023-04-10T08:10:27.495Z,6.28
2023-04-10T08:12:54.157Z,7.97
2023-04-10T08:15:20.841Z,6.85
2023-04-10T08:17:47.442Z,6.88
2023-04-10T08:20:16.513Z,6.25
2023-04-10T08:22:43.092Z,6.15
2023-04-10T08:25:10.197Z,7.35
2023-04-10T08:27:37.198Z,6.78
2023-04-10T08:30:04.315Z,6.03
2023-04-10T08:32:30.990Z,7.35
2023-04-10T08:34:57.608Z,6.78
2023-04-10T08:37:26.228Z,6.57
2023-04-10T08:39:53.407Z,9.40
2023-04-10T08:42:20.322Z,8.85
2023-04-10T08:44:49.082Z,7.80
2023-04-10T08:47:19.553Z,8.60
2023-04-10T08:49:57.865Z,6.90
2023-04-10T08:52:31.611Z,6.45
2023-04-10T08:55:00.214Z,7.50
2023-04-10T08:57:27.908Z,9.05
2023-04-10T08:59:54.732Z,6.38
2023-04-10T09:02:21.869Z,5.93
2023-04-10T09:04:55.140Z,6.05
2023-04-10T09:07:23.123Z,7.13
2023-04-10T09:09:49.696Z,6.05
2023-04-10T09:12:16.595Z,6.68
2023-04-10T09:14:43.388Z,6.60
2023-04-10T09:17:19.039Z,6.05
2023-04-10T09:19:48.386Z,6.07
2023-04-10T09:22:16.386Z,7.60
2023-04-10T09:24:45.834Z,5.50
2023-04-10T09:27:31.191Z,7.10
2023-04-10T09:29:58.554Z,5.20
2023-04-10T09:32:45.159Z,6.25
2023-04-10T09:35:13.499Z,5.35
2023-04-10T09:37:42.266Z,5.43
2023-04-10T09:40:23.802Z,5.53
2023-04-10T09:42:50.643Z,5.65
2023-04-10T09:45:22.293Z,5.47
2023-04-10T09:48:07.303Z,6.28
2023-04-10T09:50:39.884Z,5.20
2023-04-10T09:53:08.368Z,6.35
2023-04-10T09:55:36.280Z,4.72
2023-04-10T09:58:04.899Z,4.97
2023-04-10T10:00:39.150Z,5.72
2023-04-10T10:03:09.121Z,5.70
2023-04-10T10:05:41.756Z,5.32
2023-04-10T10:08:13.213Z,5.90
2023-04-10T10:10:54.555Z,5.03
2023-04-10T10:13:28.836Z,6.30
2023-04-10T10:16:11.248Z,5.43
2023-04-10T10:21:13.530Z,5.78
2023-04-10T10:23:42.278Z,5.85
2023-04-10T10:26:10.292Z,5.72
2023-04-10T10:28:41.153Z,6.50
2023-04-10T10:31:08.342Z,5.57
2023-04-10T10:33:38.274Z,7.90
2023-04-10T10:36:05.518Z,4.30
2023-04-10T10:38:32.694Z,5.35
2023-04-10T10:41:18.257Z,4.82
2023-04-10T10:43:55.986Z,5.35
2023-04-10T10:46:46.376Z,6.18
2023-04-10T10:49:12.938Z,4.68
2023-04-10T10:51:50.608Z,4.80
2023-04-10T10:54:33.760Z,4.22
2023-04-10T10:57:01.343Z,3.75
2023-04-10T10:59:54.276Z,2.28
2023-04-10T11:02:20.910Z,2.63
2023-04-10T11:04:48.988Z,2.58
2023-04-10T11:07:16.444Z,2.40
2023-04-10T11:09:54.354Z,2.53
2023-04-10T11:12:24.180Z,2.58
2023-04-10T11:15:01.394Z,2.20
2023-04-10T11:17:50.672Z,2.92
2023-04-10T11:20:28.666Z,2.40
2023-04-10T11:23:12.614Z,3.70
2023-04-10T11:25:53.457Z,2.97
2023-04-10T11:28:32.724Z,2.78
2023-04-10T11:31:26.303Z,2.38
2023-04-10T11:34:04.182Z,6.60
2023-04-10T11:36:32.013Z,2.60
2023-04-10T11:39:05.759Z,3.28
2023-04-10T11:41:34.071Z,2.05
2023-04-10T11:44:02.325Z,2.90
2023-04-10T11:46:29.740Z,2.30
2023-04-10T11:49:01.131Z,2.55
2023-04-10T11:51:29.507Z,2.50
2023-04-10T11:54:06.929Z,2.17
2023-04-10T11:56:33.641Z,2.28
2023-04-10T11:59:07.187Z,2.25
2023-04-10T12:01:34.317Z,2.35
2023-04-10T12:04:01.736Z,2.25
2023-04-10T12:06:28.892Z,2.08
2023-04-10T12:08:55.778Z,2.38
2023-04-10T12:11:26.516Z,2.60
2023-04-10T12:13:57.615Z,3.05
2023-04-10T12:16:25.205Z,3.20
2023-04-10T12:18:52.556Z,2.10
2023-04-10T12:21:19.782Z,2.10
2023-04-10T12:23:46.424Z,2.60
2023-04-10T12:26:15.729Z,1.85
2023-04-10T12:28:51.549Z,2.20
2023-04-10T12:31:18.503Z,1.80
2023-04-10T12:33:46.320Z,2.15
2023-04-10T12:36:23.597Z,3.30
2023-04-10T12:38:50.281Z,3.22
2023-04-10T12:41:23.318Z,2.60
2023-04-10T12:43:51.030Z,2.50
2023-04-10T12:46:25.884Z,1.85
2023-04-10T12:48:52.991Z,2.15
2023-04-10T12:51:19.737Z,2.03
2023-04-10T12:53:46.596Z,2.55
2023-04-10T12:56:14.589Z,1.77
2023-04-10T12:58:42.371Z,1.88
2023-04-10T13:01:09.790Z,1.80
2023-04-10T13:03:38.009Z,1.80
2023-04-10T13:06:08.582Z,2.17
2023-04-10T13:08:35.701Z,2.00
2023-04-10T13:11:05.514Z,2.17
2023-04-10T13:13:32.775Z,2.75
2023-04-10T13:16:00.172Z,2.05
2023-04-10T13:18:27.166Z,2.65
2023-04-10T13:20:53.816Z,1.70
2023-04-10T13:23:20.377Z,2.30
2023-04-10T13:25:47.390Z,2.20
2023-04-10T13:28:15.687Z,2.47
2023-04-10T13:30:42.476Z,2.22
2023-04-10T13:33:09.689Z,1.98
2023-04-10T13:35:36.344Z,2.38
2023-04-10T13:38:03.489Z,2.60
2023-04-10T13:40:30.181Z,2.42
2023-04-10T13:42:56.831Z,2.28
2023-04-10T13:45:23.440Z,2.33
2023-04-10T13:47:50.220Z,2.00
2023-04-10T13:50:16.869Z,2.35
2023-04-10T13:52:43.816Z,2.50
2023-04-10T13:55:10.905Z,2.13
2023-04-10T13:57:38.600Z,2.75
2023-04-10T14:00:06.745Z,2.15
2023-04-10T14:02:39.602Z,2.42
2023-04-10T14:05:06.713Z,1.90
2023-04-10T14:07:36.090Z,2.28
2023-04-10T14:10:03.217Z,2.08
2023-04-10T14:12:29.856Z,2.85
2023-04-10T14:14:56.685Z,3.80
2023-04-10T14:17:23.728Z,1.98
2023-04-10T14:19:52.225Z,2.05
2023-04-10T14:22:18.925Z,2.15
2023-04-10T14:24:45.886Z,2.08
2023-04-10T14:27:13.453Z,3.10
2023-04-10T14:29:50.640Z,2.05
2023-04-10T14:32:21.168Z,2.08
2023-04-10T14:34:47.798Z,2.42
2023-04-10T14:37:15.582Z,2.50
2023-04-10T14:39:42.333Z,2.50
2023-04-10T14:42:08.935Z,3.60
2023-04-10T14:44:35.602Z,2.25
2023-04-10T14:47:02.213Z,2.47
2023-04-10T14:49:28.811Z,2.88
2023-04-10T14:51:55.342Z,2.30
2023-04-10T14:54:23.488Z,10.68
2023-04-10T14:56:50.451Z,2.22
2023-04-10T14:59:17.587Z,2.10
2023-04-10T15:01:44.417Z,1.48
2023-04-10T15:04:11.802Z,1.58
2023-04-10T15:06:38.571Z,1.80
2023-04-10T15:09:05.222Z,1.40
2023-04-10T15:11:31.845Z,2.92
2023-04-10T15:14:01.417Z,1.63
2023-04-10T15:16:31.365Z,1.67
2023-04-10T15:18:57.953Z,1.35
2023-04-10T15:21:24.548Z,1.60
2023-04-10T15:23:51.130Z,1.42
2023-04-10T15:26:17.794Z,1.42
2023-04-10T15:28:44.723Z,1.60
2023-04-10T15:31:11.823Z,2.28
2023-04-10T15:33:40.036Z,1.60
2023-04-10T15:36:07.768Z,1.30
2023-04-10T15:38:35.767Z,2.53
2023-04-10T15:41:08.978Z,1.42
2023-04-10T15:43:36.110Z,3.88
2023-04-10T15:46:03.023Z,4.45
2023-04-10T15:48:29.687Z,2.78
2023-04-10T15:50:56.528Z,2.22
2023-04-10T15:53:23.154Z,2.17
2023-04-10T15:55:49.725Z,2.55
2023-04-10T15:58:16.333Z,1.33
2023-04-10T16:00:42.898Z,2.15
2023-04-10T16:03:09.625Z,1.45
2023-04-10T16:05:36.612Z,1.88
2023-04-10T16:08:03.632Z,1.30
2023-04-10T16:10:30.697Z,1.73
2023-04-10T16:13:02.718Z,1.40
2023-04-10T16:15:30.039Z,1.98
2023-04-10T16:17:57.255Z,1.70
2023-04-10T16:20:24.073Z,2.28
2023-04-10T16:22:50.704Z,2.15
2023-04-10T16:25:18.056Z,2.05
2023-04-10T16:27:48.763Z,2.45
2023-04-10T16:30:18.528Z,1.92
2023-04-10T16:32:45.686Z,2.58
2023-04-10T16:35:12.278Z,3.33
2023-04-10T16:37:38.897Z,1.63
2023-04-10T16:40:06.383Z,2.47
2023-04-10T16:42:33.012Z,2.25
2023-04-10T16:45:01.809Z,4.45
2023-04-10T16:47:29.717Z,1.95
2023-04-10T16:49:56.392Z,1.88
2023-04-10T16:52:23.095Z,1.90
2023-04-10T16:54:49.657Z,1.60
2023-04-10T16:57:16.350Z,3.13
2023-04-10T16:59:43.680Z,1.98
2023-04-10T17:02:10.429Z,3.40
2023-04-10T17:04:37.081Z,2.10
2023-04-10T17:07:03.676Z,2.25
2023-04-10T17:09:33.072Z,1.50
2023-04-10T17:11:59.737Z,3.22
2023-04-10T17:14:26.303Z,2.30
2023-04-10T17:16:56.496Z,1.65
2023-04-10T17:19:23.209Z,1.80
2023-04-10T17:21:52.022Z,1.92
2023-04-10T17:24:18.559Z,2.60
2023-04-10T17:26:45.307Z,2.70
2023-04-10T17:29:14.403Z,2.63
2023-04-10T17:31:43.309Z,1.88
2023-04-10T17:34:13.179Z,2.35
2023-04-10T17:36:42.748Z,1.92
2023-04-10T17:39:09.338Z,5.20
2023-04-10T17:41:35.977Z,1.92
2023-04-10T17:44:05.332Z,2.67
2023-04-10T17:46:34.391Z,2.40
2023-04-10T17:49:04.149Z,2.10
2023-04-10T17:51:31.568Z,2.30
2023-04-10T17:54:00.601Z,2.22
2023-04-10T17:56:27.156Z,2.97
2023-04-10T17:58:58.805Z,2.05
2023-04-10T18:01:31.843Z,2.13
2023-04-10T18:03:59.158Z,1.83
2023-04-10T18:06:33.020Z,2.83
2023-04-10T18:08:59.878Z,2.90
2023-04-10T18:11:27.107Z,2.97
2023-04-10T18:13:54.764Z,2.95
2023-04-10T18:16:21.415Z,2.63
2023-04-10T18:18:48.074Z,2.92
2023-04-10T18:21:15.901Z,2.95
2023-04-10T18:23:44.360Z,2.85
2023-04-10T18:26:13.462Z,2.15
2023-04-10T18:28:41.923Z,2.70
2023-04-10T18:31:08.641Z,2.92
2023-04-10T18:33:35.458Z,3.50
2023-04-10T18:36:03.287Z,2.88
2023-04-10T18:38:29.908Z,4.03
2023-04-10T18:40:59.091Z,5.97
2023-04-10T18:43:29.406Z,3.33
2023-04-10T18:45:56.762Z,4.53
2023-04-10T18:48:23.427Z,4.15
2023-04-10T18:50:54.543Z,2.40
2023-04-10T18:53:22.018Z,5.00
2023-04-10T18:55:55.007Z,3.72
2023-04-10T18:58:22.276Z,2.17
2023-04-10T19:00:51.425Z,2.35
2023-04-10T19:03:19.551Z,2.92
2023-04-10T19:05:46.202Z,2.20
2023-04-10T19:08:14.276Z,2.83
2023-04-10T19:10:43.343Z,3.90
2023-04-10T19:13:12.731Z,2.22
2023-04-10T19:15:44.434Z,3.58
2023-04-10T19:18:16.682Z,5.28
2023-04-10T19:23:19.224Z,3.38
2023-04-10T19:25:45.951Z,2.50
2023-04-10T19:28:12.592Z,3.85
2023-04-10T19:30:39.147Z,3.42
2023-04-10T19:33:07.854Z,2.53
2023-04-10T19:35:34.510Z,2.25
2023-04-10T19:38:01.139Z,2.35
2023-04-10T19:40:30.148Z,2.45
2023-04-10T19:42:59.419Z,2.53
2023-04-10T19:45:29.870Z,3.25
2023-04-10T19:47:58.905Z,2.25
2023-04-10T19:50:28.831Z,1.90
2023-04-10T19:52:57.729Z,1.85
2023-04-10T19:55:24.317Z,2.47
2023-04-10T19:57:51.075Z,1.95
2023-04-10T20:00:17.881Z,3.90
2023-04-10T20:02:44.864Z,3.20
2023-04-10T20:05:11.715Z,3.72
2023-04-10T20:07:38.461Z,2.30
2023-04-10T20:10:05.632Z,2.65
2023-04-10T20:12:35.931Z,1.83
2023-04-10T20:15:03.716Z,1.27
2023-04-10T20:17:30.808Z,2.95
2023-04-10T20:19:57.544Z,3.00
2023-04-10T20:22:29.204Z,2.40
2023-04-10T20:24:55.766Z,2.53
2023-04-10T20:27:24.787Z,1.85
2023-04-10T20:29:52.211Z,1.67
2023-04-10T20:32:18.976Z,2.33
2023-04-10T20:34:50.348Z,2.28
2023-04-10T20:37:21.587Z,3.65
2023-04-10T20:39:50.737Z,2.28
2023-04-10T20:42:20.566Z,1.05
2023-04-10T20:44:49.603Z,0.98
2023-04-10T20:47:16.308Z,1.50
2023-04-10T20:49:42.935Z,1.58
2023-04-10T20:52:09.503Z,1.25
2023-04-10T20:54:37.588Z,1.63
2023-04-10T20:57:05.810Z,2.42
2023-04-10T20:59:33.045Z,0.77
2023-04-10T21:02:02.154Z,1.85
2023-04-10T21:04:28.957Z,1.27
2023-04-10T21:06:55.539Z,2.83
2023-04-10T21:09:22.152Z,1.73
2023-04-10T21:11:48.809Z,2.90
2023-04-10T21:14:15.498Z,2.55
2023-04-10T21:16:42.487Z,2.72
2023-04-10T21:19:12.526Z,1.67
2023-04-10T21:21:39.089Z,4.78
2023-04-10T21:24:05.845Z,2.25
2023-04-10T21:26:32.512Z,1.45
2023-04-10T21:28:59.088Z,1.35
2023-04-10T21:31:25.724Z,0.98
2023-04-10T21:33:53.402Z,1.55
2023-04-10T21:36:22.577Z,1.40
2023-04-10T21:38:49.125Z,2.20
2023-04-10T21:41:15.690Z,2.25
2023-04-10T21:43:48.004Z,1.58
2023-04-10T21:48:41.505Z,3.45
2023-04-10T21:51:08.059Z,1.67
2023-04-10T21:53:36.722Z,1.48
2023-04-10T21:56:03.311Z,1.65
2023-04-10T21:58:33.320Z,2.05
2023-04-10T22:01:00.624Z,2.28
2023-04-10T22:03:27.387Z,2.05
2023-04-10T22:05:54.290Z,3.38
2023-04-10T22:08:21.846Z,1.40
2023-04-10T22:10:48.516Z,1.35
2023-04-10T22:13:27.549Z,0.95
2023-04-10T22:15:57.446Z,0.98
2023-04-10T22:18:28.000Z,2.40
2023-04-10T22:20:57.230Z,1.17
2023-04-10T22:23:24.096Z,2.50
2023-04-10T22:25:50.879Z,1.10
2023-04-10T22:28:17.487Z,1.30
2023-04-10T22:30:46.270Z,1.73
2023-04-10T22:33:12.969Z,1.85
2023-04-10T22:35:39.600Z,1.42
2023-04-10T22:38:07.441Z,1.88
2023-04-10T22:40:38.601Z,2.63
2023-04-10T22:43:05.861Z,2.50
2023-04-10T22:45:32.466Z,2.70
2023-04-10T22:47:59.044Z,1.73
2023-04-10T22:50:25.847Z,3.00
2023-04-10T22:52:52.417Z,1.88
2023-04-10T22:55:19.041Z,3.10
2023-04-10T22:57:50.741Z,1.85
2023-04-10T23:00:17.569Z,2.00
2023-04-10T23:02:44.198Z,5.25
2023-04-10T23:05:10.944Z,3.13
2023-04-10T23:07:37.502Z,2.20
2023-04-10T23:10:04.422Z,4.20
2023-04-10T23:12:30.997Z,4.00
2023-04-10T23:14:57.640Z,2.78
2023-04-10T23:17:24.653Z,2.30
2023-04-10T23:19:51.260Z,1.52
2023-04-10T23:22:19.053Z,7.28
2023-04-10T23:24:45.971Z,2.55
2023-04-10T23:27:12.587Z,5.72
2023-04-10T23:29:39.147Z,3.97
2023-04-10T23:32:05.846Z,2.63
2023-04-10T23:34:32.407Z,4.45
2023-04-10T23:36:59.206Z,5.57
2023-04-10T23:39:25.767Z,4.35
2023-04-10T23:41:52.553Z,3.83
2023-04-10T23:44:19.196Z,3.95
2023-04-10T23:46:46.103Z,6.38
2023-04-10T23:49:12.809Z,3.25
2023-04-10T23:51:39.347Z,6.85
2023-04-10T23:54:08.075Z,7.45
2023-04-10T23:56:34.670Z,3.47
2023-04-10T23:59:03.499Z,2.70
